Tipton, Michigan
Current Conditions -  °F | °C
As of 12:53 PM on Thursday 30 Oct 2014 (Local Time) from KADG Reporting Station
Overcast Overcast  
Wind Chill: 42°   Ceiling: 4400
Heat Index: 46°   Visibility: 10mi
Dew Point: 35°   Wind: 7mph
Humidity: 66%   Direction: 210°SSW
Pressure: 30.14"   Gusts: NA
Location:  42.02°N, 84.06°W
Report Text: KADG 301653Z AUTO 21006KT 10SM OVC044 08/02 A3014 RMK AO2 SLP213 T00780017
Loading
Personal Weather Stations






























Interactive Weather Map
Tropical Storm Tracking
New forecast layout! Learn more

10-Day Weather Forecast

Advertisements
Track Severe Weather on mobile